Time;durP1;ratioP1;P1;durP2;ratioP2;P2;SDS_P1;SDS_P2;PMS_P1;PMS_P2;Temp;Humidity;BMP_temperature;BMP_pressure;BME280_temperature;BME280_humidity;BME280_pressure;Samples;Min_cycle;Max_cycle;Signal;HPM_P1;HPM_P2
2021/05/09 00:00:17;;;;;;;0.82;0.50;;;23.30;37.50;;;;;;5014579;28;20429;-47
2021/05/09 00:02:43;;;;;;;0.70;0.50;;;23.30;37.50;;;;;;5013027;28;20026;-51
2021/05/09 00:05:10;;;;;;;0.60;0.60;;;23.30;37.50;;;;;;5013815;28;20033;-51
2021/05/09 00:07:36;;;;;;;0.65;0.50;;;23.30;37.50;;;;;;5013569;28;20322;-49
2021/05/09 00:10:04;;;;;;;1.30;0.70;;;23.30;37.50;;;;;;5013263;28;20029;-50
2021/05/09 00:12:30;;;;;;;0.90;0.60;;;23.30;37.50;;;;;;5005415;28;20041;-50
2021/05/09 00:14:56;;;;;;;1.02;0.50;;;23.20;37.50;;;;;;5013382;28;20319;-53
2021/05/09 00:17:21;;;;;;;0.98;0.60;;;23.20;37.50;;;;;;5013160;28;20089;-51
2021/05/09 00:19:47;;;;;;;1.00;0.60;;;23.30;37.60;;;;;;5014106;28;20064;-48
2021/05/09 00:22:13;;;;;;;0.60;0.60;;;23.20;37.50;;;;;;5013223;28;20025;-46
2021/05/09 00:24:39;;;;;;;1.15;0.60;;;23.20;37.50;;;;;;5013442;28;20120;-49
2021/05/09 00:27:05;;;;;;;0.95;0.50;;;23.20;37.50;;;;;;5013082;28;20034;-48
2021/05/09 00:29:30;;;;;;;0.90;0.60;;;23.20;37.60;;;;;;5013509;28;20036;-50
2021/05/09 00:31:57;;;;;;;1.23;0.45;;;23.20;37.50;;;;;;5012951;28;20048;-48
2021/05/09 00:34:22;;;;;;;0.85;0.63;;;23.20;37.50;;;;;;5013087;28;20362;-54
2021/05/09 00:36:48;;;;;;;1.00;0.47;;;23.20;37.60;;;;;;5013053;28;20049;-52
2021/05/09 00:39:14;;;;;;;1.00;0.55;;;23.20;37.60;;;;;;5012672;28;20030;-54
2021/05/09 00:41:40;;;;;;;1.05;0.60;;;23.20;37.60;;;;;;5012965;28;20068;-53
2021/05/09 00:44:07;;;;;;;1.80;0.52;;;23.20;37.60;;;;;;5013682;28;20038;-51
2021/05/09 00:46:33;;;;;;;1.75;0.68;;;23.20;37.60;;;;;;5012559;28;20036;-53
2021/05/09 00:49:01;;;;;;;1.48;0.68;;;23.20;37.60;;;;;;5012744;28;20108;-54
2021/05/09 00:51:27;;;;;;;2.35;0.73;;;23.20;37.60;;;;;;5005462;28;20030;-53
2021/05/09 00:53:56;;;;;;;1.38;0.57;;;23.10;37.60;;;;;;5010320;28;20073;-56
2021/05/09 00:56:25;;;;;;;0.40;0.40;;;23.10;37.60;;;;;;5011794;28;20038;-51
2021/05/09 00:58:53;;;;;;;0.65;0.40;;;23.10;37.60;;;;;;5012355;28;20120;-52
2021/05/09 01:01:19;;;;;;;0.95;0.70;;;23.20;37.60;;;;;;5012153;28;20087;-52
2021/05/09 01:03:46;;;;;;;2.05;0.65;;;23.10;37.60;;;;;;5011914;28;20060;-54
2021/05/09 01:06:14;;;;;;;2.38;0.50;;;23.10;37.60;;;;;;5012432;28;20125;-52
2021/05/09 01:08:39;;;;;;;1.48;0.60;;;23.10;37.60;;;;;;5012615;28;20025;-52
2021/05/09 01:11:06;;;;;;;0.95;0.70;;;23.10;37.60;;;;;;5010930;28;20041;-53
2021/05/09 01:13:33;;;;;;;0.90;0.60;;;23.10;37.60;;;;;;5011717;28;20042;-55
2021/05/09 01:16:00;;;;;;;1.17;0.70;;;23.10;37.60;;;;;;5010142;28;20476;-51
2021/05/09 01:18:28;;;;;;;0.90;0.60;;;23.10;37.60;;;;;;5012412;28;20045;-53
2021/05/09 01:20:54;;;;;;;1.00;0.60;;;23.10;37.60;;;;;;5012342;28;20434;-56
2021/05/09 01:23:20;;;;;;;1.02;0.60;;;23.10;37.60;;;;;;5012803;28;20030;-53
2021/05/09 01:25:46;;;;;;;0.88;0.50;;;23.00;37.60;;;;;;5012384;28;20400;-56
2021/05/09 01:28:12;;;;;;;1.00;0.70;;;23.00;37.60;;;;;;5011683;28;20037;-50
2021/05/09 01:30:38;;;;;;;1.75;0.70;;;23.10;37.70;;;;;;5010742;28;20080;-55
2021/05/09 01:33:05;;;;;;;0.93;0.60;;;23.00;37.70;;;;;;5008511;28;20046;-56
2021/05/09 01:35:32;;;;;;;1.10;0.60;;;23.10;37.70;;;;;;5011006;28;20022;-55
2021/05/09 01:37:58;;;;;;;0.95;0.60;;;23.00;37.70;;;;;;5011192;28;20460;-53
2021/05/09 01:40:23;;;;;;;1.08;0.60;;;23.00;37.70;;;;;;5010982;28;20030;-55
2021/05/09 01:42:50;;;;;;;1.00;0.50;;;23.00;37.70;;;;;;5009325;28;20095;-49
2021/05/09 01:45:17;;;;;;;1.02;0.70;;;23.00;37.70;;;;;;5008842;28;20295;-54
2021/05/09 01:47:44;;;;;;;1.17;0.60;;;23.00;37.70;;;;;;5011979;28;20106;-52
2021/05/09 01:50:14;;;;;;;1.27;0.50;;;23.00;37.70;;;;;;5010484;28;20327;-52
2021/05/09 01:52:40;;;;;;;1.73;0.68;;;23.00;37.70;;;;;;5010599;28;20034;-57
2021/05/09 01:55:09;;;;;;;0.98;0.60;;;23.00;37.80;;;;;;5010660;28;20030;-54
2021/05/09 01:57:37;;;;;;;0.80;0.50;;;23.00;38.40;;;;;;5010936;28;20057;-52
2021/05/09 02:00:14;;;;;;;1.20;0.70;;;22.90;37.70;;;;;;5011446;28;20025;-53
2021/05/09 02:02:52;;;;;;;1.20;0.60;;;23.00;37.80;;;;;;5001932;28;20438;-52
2021/05/09 02:05:24;;;;;;;1.50;0.60;;;22.90;37.70;;;;;;5008307;28;20073;-57
2021/05/09 02:07:50;;;;;;;1.23;0.68;;;22.90;37.80;;;;;;5011733;28;20425;-51
2021/05/09 02:10:20;;;;;;;0.90;0.65;;;22.90;37.80;;;;;;5010240;28;20153;-55
2021/05/09 02:12:48;;;;;;;0.77;0.52;;;22.90;37.80;;;;;;5012347;28;20073;-56
2021/05/09 02:15:29;;;;;;;0.75;0.60;;;22.90;37.80;;;;;;5010779;28;20353;-50
2021/05/09 02:17:55;;;;;;;0.90;0.60;;;22.90;37.80;;;;;;5011160;28;20515;-55
2021/05/09 02:20:26;;;;;;;0.85;0.55;;;22.90;37.80;;;;;;5010222;28;20037;-51
2021/05/09 02:22:53;;;;;;;0.60;0.57;;;22.80;37.80;;;;;;5011324;28;20045;-57
2021/05/09 02:25:19;;;;;;;1.27;0.70;;;22.90;37.90;;;;;;5011317;28;20034;-57
2021/05/09 02:27:46;;;;;;;0.73;0.60;;;22.80;37.80;;;;;;5010927;28;20084;-57
2021/05/09 02:30:12;;;;;;;1.92;0.80;;;22.80;37.80;;;;;;5014075;28;20065;-49
2021/05/09 02:32:38;;;;;;;1.27;0.77;;;22.80;37.80;;;;;;5013730;28;20381;-52
2021/05/09 02:35:05;;;;;;;1.02;0.60;;;22.80;37.80;;;;;;5015027;28;20030;-52
2021/05/09 02:37:31;;;;;;;1.08;0.68;;;22.80;37.80;;;;;;5015187;28;20026;-51
2021/05/09 02:39:57;;;;;;;0.50;0.50;;;22.80;37.90;;;;;;5013566;28;20042;-53
2021/05/09 02:42:24;;;;;;;1.17;0.80;;;22.80;37.90;;;;;;5015063;28;20441;-50
2021/05/09 02:44:51;;;;;;;1.05;0.50;;;22.80;37.90;;;;;;5013335;28;20037;-53
2021/05/09 02:47:29;;;;;;;1.88;0.73;;;22.80;37.90;;;;;;4997817;28;20110;-57
2021/05/09 02:50:03;;;;;;;0.98;0.60;;;22.80;37.90;;;;;;5013114;28;20565;-53
2021/05/09 02:52:29;;;;;;;0.40;0.40;;;22.80;37.90;;;;;;4989742;28;20482;-53
2021/05/09 02:54:57;;;;;;;1.33;0.50;;;22.80;37.90;;;;;;4997449;28;21592;-55
2021/05/09 02:57:23;;;;;;;1.20;0.60;;;22.70;37.80;;;;;;5013442;28;20021;-54
2021/05/09 02:59:50;;;;;;;2.03;0.70;;;22.70;37.90;;;;;;5013001;28;20021;-53
2021/05/09 03:02:16;;;;;;;0.60;0.60;;;22.70;37.90;;;;;;5014325;28;20037;-54
2021/05/09 03:04:42;;;;;;;0.93;0.60;;;22.70;37.90;;;;;;5012885;28;20074;-55
2021/05/09 03:07:09;;;;;;;1.25;0.73;;;22.70;37.90;;;;;;5012976;28;20449;-54
2021/05/09 03:09:35;;;;;;;2.25;0.80;;;22.70;38.00;;;;;;5014589;28;20040;-54
2021/05/09 03:12:01;;;;;;;1.15;0.60;;;22.70;38.00;;;;;;5013813;28;20022;-56
2021/05/09 03:14:27;;;;;;;1.38;0.68;;;22.70;38.00;;;;;;5012868;28;20041;-54
2021/05/09 03:16:53;;;;;;;1.23;0.70;;;22.70;38.00;;;;;;5014634;28;20025;-55
2021/05/09 03:19:18;;;;;;;0.90;0.68;;;22.70;38.00;;;;;;5014319;28;20438;-53
2021/05/09 03:21:44;;;;;;;1.27;0.70;;;22.70;38.00;;;;;;5013583;28;20030;-52
2021/05/09 03:24:10;;;;;;;0.63;0.43;;;22.60;37.90;;;;;;5014448;28;20452;-52
2021/05/09 03:26:37;;;;;;;0.85;0.60;;;22.70;38.00;;;;;;5014520;28;20400;-53
2021/05/09 03:29:04;;;;;;;1.15;0.70;;;22.60;38.00;;;;;;5013713;28;20116;-52
2021/05/09 03:31:29;;;;;;;0.93;0.70;;;22.60;38.00;;;;;;5014212;28;20045;-53
2021/05/09 03:33:55;;;;;;;1.17;0.80;;;22.60;38.00;;;;;;5014020;28;20113;-56
2021/05/09 03:36:21;;;;;;;2.08;0.80;;;22.60;38.00;;;;;;5013629;28;20030;-52
2021/05/09 03:38:47;;;;;;;1.52;0.70;;;22.60;38.00;;;;;;5013729;28;20034;-49
2021/05/09 03:41:13;;;;;;;1.25;0.70;;;22.60;37.90;;;;;;5012380;28;20068;-51
2021/05/09 03:43:39;;;;;;;1.02;0.63;;;22.60;38.00;;;;;;5013093;28;20049;-52
2021/05/09 03:46:04;;;;;;;0.90;0.70;;;22.60;37.90;;;;;;5013563;28;20133;-53
2021/05/09 03:48:30;;;;;;;1.10;0.60;;;22.60;37.90;;;;;;5013371;28;20060;-54
2021/05/09 03:50:56;;;;;;;0.63;0.55;;;22.60;37.90;;;;;;5012564;28;20042;-53
2021/05/09 03:53:23;;;;;;;0.68;0.60;;;22.60;38.00;;;;;;5013981;28;20042;-52
2021/05/09 03:55:50;;;;;;;0.80;0.70;;;22.50;37.90;;;;;;5014017;28;20124;-53
2021/05/09 03:58:16;;;;;;;0.95;0.65;;;22.50;38.00;;;;;;5013863;28;20033;-52
2021/05/09 04:00:43;;;;;;;1.05;0.63;;;22.60;38.00;;;;;;5012537;28;20453;-51
2021/05/09 04:03:30;;;;;;;1.15;0.73;;;22.60;38.00;;;;;;5012605;28;20044;-53
2021/05/09 04:05:56;;;;;;;0.88;0.68;;;22.50;38.00;;;;;;5012522;28;20053;-51
2021/05/09 04:08:24;;;;;;;0.80;0.60;;;22.50;38.00;;;;;;5013075;28;20057;-53
2021/05/09 04:10:51;;;;;;;0.80;0.68;;;22.60;38.00;;;;;;5011028;28;20029;-51
2021/05/09 04:13:18;;;;;;;0.63;0.50;;;22.50;38.00;;;;;;5011284;28;20052;-52
2021/05/09 04:15:44;;;;;;;1.17;0.68;;;22.50;38.00;;;;;;5012904;28;20038;-53
2021/05/09 04:18:10;;;;;;;1.38;0.75;;;22.50;38.00;;;;;;5012928;28;20109;-49
2021/05/09 04:20:36;;;;;;;1.17;0.70;;;22.50;38.00;;;;;;5012630;28;20117;-53
2021/05/09 04:23:19;;;;;;;1.00;0.60;;;22.50;38.00;;;;;;5012883;28;20438;-53
2021/05/09 04:25:51;;;;;;;0.73;0.60;;;22.50;38.00;;;;;;5012650;28;20081;-50
2021/05/09 04:28:20;;;;;;;1.30;0.77;;;22.50;38.10;;;;;;5012588;28;20481;-57
2021/05/09 04:30:47;;;;;;;0.88;0.50;;;22.50;38.10;;;;;;5011656;28;20030;-57
2021/05/09 04:33:13;;;;;;;1.40;0.70;;;22.50;38.10;;;;;;5013038;28;20042;-52
2021/05/09 04:35:42;;;;;;;0.60;0.55;;;22.50;38.10;;;;;;5012966;28;20350;-57
2021/05/09 04:38:08;;;;;;;0.68;0.63;;;22.50;38.20;;;;;;5010200;28;20030;-58
2021/05/09 04:40:34;;;;;;;0.98;0.70;;;22.50;38.20;;;;;;5012879;28;20430;-53
2021/05/09 04:43:11;;;;;;;0.73;0.52;;;22.50;38.30;;;;;;5013071;28;20038;-53
2021/05/09 04:45:37;;;;;;;0.85;0.65;;;22.50;38.30;;;;;;5011996;28;20478;-54
2021/05/09 04:48:04;;;;;;;1.25;0.70;;;22.50;38.30;;;;;;5012900;28;20084;-55
2021/05/09 04:50:30;;;;;;;1.92;0.60;;;22.50;38.30;;;;;;5011861;28;20346;-55
2021/05/09 04:52:56;;;;;;;1.42;0.57;;;22.40;38.20;;;;;;5012536;28;20045;-55
2021/05/09 04:55:22;;;;;;;0.80;0.63;;;22.40;38.20;;;;;;5012912;28;20030;-55
2021/05/09 04:57:48;;;;;;;0.95;0.60;;;22.50;38.30;;;;;;5012562;28;20018;-51
2021/05/09 05:00:14;;;;;;;1.15;0.60;;;22.50;38.30;;;;;;5012345;28;20034;-54
2021/05/09 05:02:45;;;;;;;0.50;0.50;;;22.40;38.20;;;;;;5011981;28;20360;-53
2021/05/09 05:05:12;;;;;;;0.90;0.60;;;22.50;38.30;;;;;;5012472;28;20514;-57
2021/05/09 05:07:37;;;;;;;0.70;0.60;;;22.40;38.30;;;;;;5011848;28;20041;-51
2021/05/09 05:10:04;;;;;;;0.50;0.50;;;22.40;38.30;;;;;;5012729;28;20029;-53
2021/05/09 05:12:30;;;;;;;1.55;0.60;;;22.40;38.30;;;;;;5012087;28;20353;-52
2021/05/09 05:14:57;;;;;;;0.73;0.55;;;22.40;38.30;;;;;;5012382;28;20032;-50
2021/05/09 05:17:23;;;;;;;0.98;0.63;;;22.50;38.30;;;;;;5012332;28;20025;-57
2021/05/09 05:19:49;;;;;;;0.80;0.77;;;22.50;38.40;;;;;;5010572;28;20480;-54
2021/05/09 05:22:14;;;;;;;1.30;0.68;;;22.40;38.40;;;;;;5011686;28;20048;-56
2021/05/09 05:24:40;;;;;;;1.02;0.75;;;22.40;38.40;;;;;;5012278;28;20077;-55
2021/05/09 05:27:06;;;;;;;1.75;0.60;;;22.50;38.40;;;;;;5009019;28;20400;-53
2021/05/09 05:29:32;;;;;;;1.00;0.70;;;22.50;38.50;;;;;;5012090;28;20021;-55
2021/05/09 05:31:58;;;;;;;1.02;0.77;;;22.50;38.50;;;;;;5011998;28;20326;-53
2021/05/09 05:34:24;;;;;;;1.15;0.90;;;22.50;38.50;;;;;;5011638;28;20038;-50
2021/05/09 05:36:50;;;;;;;1.20;0.82;;;22.50;38.60;;;;;;5012254;28;20084;-49
2021/05/09 05:39:16;;;;;;;1.70;0.85;;;22.50;38.60;;;;;;5012286;28;20037;-51
2021/05/09 05:41:41;;;;;;;0.80;0.60;;;22.40;38.60;;;;;;5012164;28;20037;-55
2021/05/09 05:44:08;;;;;;;1.65;0.75;;;22.40;38.60;;;;;;5012729;28;20033;-54
2021/05/09 05:46:34;;;;;;;1.38;0.90;;;22.50;38.70;;;;;;5010510;28;20037;-55
2021/05/09 05:49:00;;;;;;;1.23;0.90;;;22.50;39.30;;;;;;5011968;28;20445;-55
2021/05/09 05:51:27;;;;;;;1.23;0.80;;;22.50;38.70;;;;;;5012358;28;20018;-52
2021/05/09 05:53:56;;;;;;;1.10;0.70;;;22.40;38.70;;;;;;5012390;28;20349;-52
2021/05/09 05:56:26;;;;;;;0.60;0.60;;;22.50;38.80;;;;;;5011080;28;20045;-55
2021/05/09 05:58:52;;;;;;;1.73;0.80;;;22.40;38.70;;;;;;5012658;28;20044;-54
2021/05/09 06:01:18;;;;;;;1.27;0.75;;;22.40;38.80;;;;;;5012450;28;20040;-54
2021/05/09 06:03:44;;;;;;;1.25;0.80;;;22.50;38.80;;;;;;5015748;28;20117;-56
2021/05/09 06:06:10;;;;;;;1.00;0.70;;;22.50;38.90;;;;;;5015857;28;20147;-55
2021/05/09 06:08:37;;;;;;;1.30;0.70;;;22.40;38.80;;;;;;5015271;28;20029;-54
2021/05/09 06:11:02;;;;;;;1.27;0.70;;;22.50;38.90;;;;;;4998644;28;20026;-51
2021/05/09 06:13:28;;;;;;;2.22;0.85;;;22.40;38.90;;;;;;5015403;28;20026;-50
2021/05/09 06:15:54;;;;;;;0.75;0.60;;;22.40;39.00;;;;;;5016058;28;20697;-53
2021/05/09 06:18:20;;;;;;;1.35;0.60;;;22.40;39.00;;;;;;5015121;28;20415;-52
2021/05/09 06:20:46;;;;;;;0.90;0.70;;;22.50;39.10;;;;;;5014810;28;20030;-52
2021/05/09 06:23:12;;;;;;;1.20;0.75;;;22.50;39.10;;;;;;4998651;28;20034;-55
2021/05/09 06:25:38;;;;;;;1.02;0.70;;;22.50;39.10;;;;;;5014885;28;20041;-54
2021/05/09 06:28:05;;;;;;;0.68;0.50;;;22.50;39.20;;;;;;5015428;28;20029;-52
2021/05/09 06:30:31;;;;;;;1.02;0.55;;;22.50;39.20;;;;;;5015158;28;20045;-51
2021/05/09 06:32:57;;;;;;;0.95;0.68;;;22.50;39.20;;;;;;5015874;28;20156;-54
2021/05/09 06:35:23;;;;;;;0.52;0.52;;;22.50;39.20;;;;;;5015117;28;20038;-56
2021/05/09 06:37:54;;;;;;;0.70;0.60;;;22.50;39.20;;;;;;5014954;28;20456;-54
2021/05/09 06:40:21;;;;;;;1.08;0.70;;;22.50;39.20;;;;;;5014700;28;20026;-52
2021/05/09 06:42:55;;;;;;;0.68;0.60;;;22.50;39.30;;;;;;5015150;28;20042;-53
2021/05/09 06:45:25;;;;;;;1.05;0.60;;;22.60;39.40;;;;;;5013856;28;20080;-55
2021/05/09 06:47:51;;;;;;;1.23;0.75;;;22.60;39.40;;;;;;5014385;28;20025;-56
2021/05/09 06:50:16;;;;;;;0.85;0.65;;;22.60;39.40;;;;;;5014747;28;20481;-54
2021/05/09 06:52:43;;;;;;;0.70;0.50;;;22.60;39.40;;;;;;5011042;28;20046;-52
2021/05/09 06:55:11;;;;;;;0.57;0.40;;;22.60;39.40;;;;;;5010561;28;20405;-56
2021/05/09 06:57:38;;;;;;;0.82;0.50;;;22.70;39.30;;;;;;5010506;28;20040;-53
2021/05/09 07:00:09;;;;;;;0.80;0.50;;;22.80;39.20;;;;;;5010121;28;20392;-56
2021/05/09 07:02:41;;;;;;;0.95;0.55;;;22.80;39.10;;;;;;5013543;28;20132;-56
2021/05/09 07:05:07;;;;;;;1.02;0.60;;;22.90;39.10;;;;;;5015511;28;20405;-57
2021/05/09 07:07:49;;;;;;;1.05;0.60;;;22.90;39.00;;;;;;5015767;28;20029;-52
2021/05/09 07:10:15;;;;;;;0.80;0.60;;;22.90;39.00;;;;;;5016533;28;20030;-54
2021/05/09 07:12:42;;;;;;;1.65;0.80;;;23.00;39.00;;;;;;5015126;28;20034;-50
2021/05/09 07:15:08;;;;;;;1.55;0.88;;;23.00;38.90;;;;;;5015213;28;20034;-54
2021/05/09 07:17:34;;;;;;;1.10;0.85;;;23.00;38.80;;;;;;5016153;28;20026;-58
2021/05/09 07:20:00;;;;;;;1.52;1.02;;;23.10;38.80;;;;;;5013809;28;20449;-54
2021/05/09 07:22:52;;;;;;;1.45;1.15;;;23.10;38.80;;;;;;5015944;28;20472;-56
2021/05/09 07:25:12;;;;;;;1.70;1.10;;;23.10;38.70;;;;;;5015363;28;20896;-54
2021/05/09 07:27:38;;;;;;;1.83;1.20;;;23.10;38.60;;;;;;5015722;28;20508;-49
2021/05/09 07:30:04;;;;;;;1.52;1.08;;;23.20;38.70;;;;;;5015194;28;20120;-54
2021/05/09 07:32:30;;;;;;;2.53;1.45;;;23.20;38.70;;;;;;5015954;28;20029;-52
2021/05/09 07:34:56;;;;;;;1.98;1.63;;;23.20;38.60;;;;;;5014442;28;20088;-58
2021/05/09 07:37:21;;;;;;;2.45;1.73;;;23.20;38.60;;;;;;5015436;28;20149;-54
2021/05/09 07:39:47;;;;;;;2.97;2.17;;;23.20;38.50;;;;;;5015706;28;20437;-58
2021/05/09 07:42:13;;;;;;;2.50;2.08;;;23.30;38.60;;;;;;5014789;28;20038;-52
2021/05/09 07:44:39;;;;;;;2.60;2.10;;;23.30;38.50;;;;;;5015712;28;20025;-50
2021/05/09 07:47:04;;;;;;;2.33;2.05;;;23.30;39.10;;;;;;5015578;28;20028;-54
2021/05/09 07:49:31;;;;;;;3.35;2.58;;;23.30;38.40;;;;;;5015082;28;20451;-53
2021/05/09 07:51:56;;;;;;;2.95;2.28;;;23.30;38.40;;;;;;5014830;28;20084;-56
2021/05/09 07:54:22;;;;;;;4.07;3.03;;;23.40;38.40;;;;;;5014545;28;20362;-56
2021/05/09 07:56:48;;;;;;;4.85;2.90;;;23.40;38.40;;;;;;5013193;28;20038;-58
2021/05/09 07:59:14;;;;;;;3.03;2.45;;;23.40;38.40;;;;;;5030502;28;20025;-63
2021/05/09 08:01:40;;;;;;;3.17;2.58;;;23.40;38.30;;;;;;5016199;28;20065;-58
2021/05/09 08:04:06;;;;;;;2.55;2.28;;;23.40;38.30;;;;;;5013518;28;20080;-57
2021/05/09 08:06:32;;;;;;;3.08;2.78;;;23.40;38.30;;;;;;5012869;28;20041;-55
2021/05/09 08:08:57;;;;;;;4.38;2.58;;;23.50;38.40;;;;;;5014643;28;20373;-55
2021/05/09 08:11:23;;;;;;;4.00;3.08;;;23.40;38.40;;;;;;5014582;28;20068;-53
2021/05/09 08:13:49;;;;;;;3.53;2.90;;;23.40;38.40;;;;;;5014810;28;20112;-54
2021/05/09 08:16:15;;;;;;;3.92;3.30;;;23.50;38.40;;;;;;5014221;28;20448;-54
2021/05/09 08:18:40;;;;;;;3.05;2.72;;;23.50;38.40;;;;;;5014341;28;20053;-54
2021/05/09 08:21:06;;;;;;;3.55;3.10;;;23.50;38.50;;;;;;5014869;28;20315;-57
2021/05/09 08:23:35;;;;;;;4.70;3.45;;;23.50;38.50;;;;;;5015005;28;20026;-55
2021/05/09 08:26:01;;;;;;;3.30;3.00;;;23.50;38.50;;;;;;5023002;28;20030;-56
2021/05/09 08:28:27;;;;;;;3.47;3.00;;;23.50;38.40;;;;;;5014670;28;20318;-59
2021/05/09 08:30:52;;;;;;;4.35;3.17;;;23.50;38.40;;;;;;5015268;28;20030;-58
2021/05/09 08:33:18;;;;;;;3.75;3.10;;;23.50;38.30;;;;;;5014496;28;20138;-59
2021/05/09 08:35:44;;;;;;;4.43;3.05;;;23.60;38.30;;;;;;5014221;28;20497;-58
2021/05/09 08:38:10;;;;;;;3.20;2.90;;;23.60;38.30;;;;;;5014432;28;20045;-56
2021/05/09 08:40:35;;;;;;;4.10;3.35;;;23.60;38.20;;;;;;5013552;28;20021;-60
2021/05/09 08:43:01;;;;;;;3.38;2.90;;;23.60;38.10;;;;;;5014336;28;20037;-57
2021/05/09 08:45:27;;;;;;;3.90;3.38;;;23.60;38.10;;;;;;5013708;28;20026;-59
2021/05/09 08:47:55;;;;;;;3.72;3.08;;;23.60;38.00;;;;;;5014403;28;20034;-56
2021/05/09 08:50:28;;;;;;;3.35;2.92;;;23.60;38.00;;;;;;5009790;28;20029;-60
2021/05/09 08:52:55;;;;;;;3.55;3.25;;;23.60;38.00;;;;;;5012185;28;20033;-64
2021/05/09 08:55:26;;;;;;;5.88;4.82;;;23.70;38.10;;;;;;5013351;28;20029;-60
2021/05/09 08:57:53;;;;;;;7.30;5.45;;;23.70;38.40;;;;;;5011077;28;20064;-57
2021/05/09 09:00:20;;;;;;;9.65;7.72;;;23.70;38.80;;;;;;5012148;28;20049;-59
2021/05/09 09:02:46;;;;;;;10.32;9.02;;;23.70;39.30;;;;;;5012986;28;20080;-55
2021/05/09 09:05:13;;;;;;;13.73;9.88;;;23.80;39.90;;;;;;5011882;28;20461;-57
2021/05/09 09:07:51;;;;;;;13.07;10.40;;;23.80;40.50;;;;;;5011597;28;20030;-57
2021/05/09 09:10:34;;;;;;;14.52;10.48;;;23.90;41.00;;;;;;5011622;28;20045;-58
2021/05/09 09:13:01;;;;;;;13.40;10.75;;;23.90;41.30;;;;;;5010512;28;20151;-58
2021/05/09 09:15:55;;;;;;;13.32;10.60;;;24.00;41.30;;;;;;5010939;28;20046;-62
2021/05/09 09:18:27;;;;;;;13.35;10.90;;;24.00;41.40;;;;;;5009201;28;20034;-57
2021/05/09 09:20:53;;;;;;;15.48;11.48;;;24.00;41.30;;;;;;5011057;28;20042;-58
2021/05/09 09:23:19;;;;;;;13.63;10.18;;;24.00;41.40;;;;;;5010648;28;20036;-51
2021/05/09 09:25:45;;;;;;;13.13;10.20;;;24.10;41.50;;;;;;5012330;28;20120;-58
2021/05/09 09:28:11;;;;;;;16.17;11.65;;;24.20;41.50;;;;;;5010384;28;20026;-59
2021/05/09 09:30:54;;;;;;;14.18;10.77;;;24.20;41.40;;;;;;5013328;28;20056;-60
2021/05/09 09:33:21;;;;;;;13.48;10.65;;;24.20;41.50;;;;;;5013083;28;20056;-63
2021/05/09 09:35:51;;;;;;;11.95;10.48;;;24.30;41.50;;;;;;5012076;28;20396;-57
2021/05/09 09:38:30;;;;;;;11.43;9.93;;;24.30;41.40;;;;;;5016355;28;20353;-62
2021/05/09 09:41:14;;;;;;;12.38;9.77;;;24.30;41.30;;;;;;4998460;28;20027;-53
2021/05/09 09:44:03;;;;;;;14.25;11.20;;;24.40;41.50;;;;;;5001049;28;20050;-55
2021/05/09 09:46:35;;;;;;;14.05;11.65;;;24.40;41.90;;;;;;5017022;28;21417;-57
2021/05/09 09:49:17;;;;;;;15.00;11.63;;;24.40;42.00;;;;;;5015730;28;20025;-58
2021/05/09 09:51:59;;;;;;;17.77;12.25;;;24.40;42.20;;;;;;4999233;28;20105;-57
2021/05/09 09:54:35;;;;;;;18.35;13.57;;;24.50;42.70;;;;;;5017331;28;20100;-61
2021/05/09 09:57:08;;;;;;;15.15;13.30;;;24.50;43.10;;;;;;5014671;28;20108;-57
2021/05/09 09:59:34;;;;;;;16.63;13.35;;;24.60;43.50;;;;;;5015624;28;20380;-57
2021/05/09 10:02:02;;;;;;;17.45;13.65;;;24.60;43.70;;;;;;5013869;28;20029;-54
2021/05/09 10:04:28;;;;;;;15.70;13.93;;;24.60;43.80;;;;;;5015820;28;20057;-54
2021/05/09 10:06:54;;;;;;;13.77;12.23;;;24.60;43.60;;;;;;5021944;28;20112;-54
2021/05/09 10:09:20;;;;;;;14.43;12.52;;;24.60;43.40;;;;;;5014018;28;20434;-53
2021/05/09 10:11:46;;;;;;;13.93;11.82;;;24.70;43.10;;;;;;5014104;28;20045;-52
2021/05/09 10:14:12;;;;;;;14.60;12.20;;;24.70;43.00;;;;;;5014348;28;20129;-51
2021/05/09 10:16:42;;;;;;;15.70;13.55;;;24.70;43.00;;;;;;5009902;28;20054;-51
2021/05/09 10:19:13;;;;;;;17.45;13.57;;;24.80;43.20;;;;;;5011055;28;20029;-57
2021/05/09 10:21:40;;;;;;;13.73;12.32;;;24.80;43.00;;;;;;5014807;28;20412;-53
2021/05/09 10:24:22;;;;;;;13.73;11.30;;;24.80;42.80;;;;;;5015589;28;20069;-56
2021/05/09 10:26:59;;;;;;;12.10;10.38;;;24.80;42.60;;;;;;5012122;28;20121;-55
2021/05/09 10:29:49;;;;;;;9.45;8.50;;;24.80;42.40;;;;;;5013807;28;20178;-58
2021/05/09 10:32:21;;;;;;;7.38;6.53;;;24.80;42.10;;;;;;5002771;28;20070;-56
2021/05/09 10:34:53;;;;;;;7.53;6.45;;;24.90;42.00;;;;;;5008407;28;20115;-50
2021/05/09 10:40:31;;;;;;;7.13;5.38;;;24.90;41.60;;;;;;5012688;28;20045;-61
2021/05/09 10:43:01;;;;;;;5.03;4.53;;;24.90;41.40;;;;;;5014007;28;20029;-57
2021/05/09 10:45:28;;;;;;;6.70;5.43;;;24.90;41.40;;;;;;5014122;28;20458;-63
2021/05/09 10:48:32;;;;;;;5.65;4.70;;;24.90;41.40;;;;;;5014727;28;20034;-61
2021/05/09 10:51:09;;;;;;;5.97;5.10;;;24.90;41.20;;;;;;4981604;28;20564;-61
2021/05/09 10:53:40;;;;;;;5.63;4.63;;;24.90;41.20;;;;;;5014665;28;20041;-61
2021/05/09 10:56:19;;;;;;;5.15;4.65;;;24.90;41.20;;;;;;5012043;28;20100;-52
2021/05/09 10:58:49;;;;;;;6.13;5.53;;;25.00;41.20;;;;;;5010295;28;20041;-55
2021/05/09 11:01:26;;;;;;;5.53;4.90;;;25.00;41.20;;;;;;5014408;28;20034;-59
2021/05/09 11:04:00;;;;;;;6.32;5.45;;;25.00;41.20;;;;;;5013535;28;20029;-59
2021/05/09 11:06:26;;;;;;;7.25;5.90;;;25.00;41.10;;;;;;5013392;28;20050;-59
2021/05/09 11:09:07;;;;;;;9.20;6.80;;;25.00;41.00;;;;;;5014601;28;20041;-61
2021/05/09 11:11:35;;;;;;;9.45;7.22;;;25.00;41.00;;;;;;5013052;28;20473;-61
2021/05/09 11:14:16;;;;;;;7.40;6.70;;;25.00;40.90;;;;;;5007776;28;20124;-62
2021/05/09 11:16:58;;;;;;;7.60;6.57;;;25.00;40.90;;;;;;5009525;28;20060;-58
2021/05/09 11:19:45;;;;;;;8.75;7.88;;;25.00;41.00;;;;;;5010619;28;20108;-60
2021/05/09 11:22:17;;;;;;;7.70;6.88;;;25.00;40.90;;;;;;5008325;28;20034;-56
2021/05/09 11:24:44;;;;;;;9.38;7.30;;;25.00;40.90;;;;;;5014106;28;20037;-59
2021/05/09 11:27:12;;;;;;;8.95;7.75;;;25.00;40.90;;;;;;5013975;28;20361;-59
2021/05/09 11:29:48;;;;;;;8.02;7.20;;;25.00;40.90;;;;;;5013137;28;20022;-61
2021/05/09 11:32:18;;;;;;;8.43;7.63;;;25.00;40.90;;;;;;5011016;28;20103;-58
2021/05/09 11:34:54;;;;;;;10.75;8.68;;;25.00;40.90;;;;;;5007183;28;20041;-58
2021/05/09 11:37:33;;;;;;;;;;;25.00;40.90;;;;;;5014555;28;20030;-61
2021/05/09 11:40:00;;;;;;;8.07;7.28;;;24.90;40.90;;;;;;5008863;28;19979;-56
2021/05/09 11:42:29;;;;;;;8.82;7.45;;;25.00;40.90;;;;;;5009386;28;20045;-57
2021/05/09 11:44:58;;;;;;;9.32;8.23;;;25.00;40.90;;;;;;5009286;28;20034;-54
2021/05/09 11:47:27;;;;;;;9.10;7.68;;;25.00;41.00;;;;;;5012961;28;20030;-57
2021/05/09 11:49:58;;;;;;;8.00;7.03;;;25.00;41.00;;;;;;5013928;28;20033;-55
2021/05/09 11:52:27;;;;;;;6.82;6.13;;;25.00;40.90;;;;;;5015022;28;20041;-50
2021/05/09 11:54:58;;;;;;;6.88;6.28;;;25.00;40.90;;;;;;5010651;28;20034;-49
2021/05/09 11:57:25;;;;;;;7.60;6.75;;;25.00;41.50;;;;;;5011475;28;20060;-51
2021/05/09 11:59:58;;;;;;;6.13;5.50;;;25.00;40.80;;;;;;5010396;28;20084;-55
2021/05/09 12:02:31;;;;;;;7.22;6.53;;;25.00;40.80;;;;;;5013161;28;20025;-49
2021/05/09 12:05:02;;;;;;;7.30;6.35;;;25.00;40.80;;;;;;5009916;28;20128;-53
2021/05/09 12:07:49;;;;;;;7.75;6.82;;;25.00;40.80;;;;;;5010389;28;20059;-53
2021/05/09 12:10:16;;;;;;;6.68;6.07;;;25.00;40.80;;;;;;5013095;28;20029;-55
2021/05/09 12:12:46;;;;;;;7.78;6.97;;;25.00;40.80;;;;;;5012227;28;20038;-55
2021/05/09 12:15:18;;;;;;;7.70;6.90;;;25.00;40.80;;;;;;5012015;28;20037;-57
2021/05/09 12:17:55;;;;;;;7.20;6.50;;;25.00;40.80;;;;;;5011353;28;20034;-52
2021/05/09 12:20:24;;;;;;;9.57;8.20;;;25.00;40.90;;;;;;5010992;28;20123;-54
2021/05/09 12:22:51;;;;;;;8.15;7.35;;;25.00;40.90;;;;;;5010788;28;20338;-57
2021/05/09 12:25:31;;;;;;;7.82;6.10;;;25.00;41.00;;;;;;5009918;28;20116;-57
2021/05/09 12:28:08;;;;;;;6.50;5.85;;;25.00;41.10;;;;;;5011421;28;20124;-59
2021/05/09 12:30:35;;;;;;;7.03;6.32;;;25.00;41.10;;;;;;5008650;28;20025;-51
2021/05/09 12:33:02;;;;;;;8.23;6.43;;;25.00;41.10;;;;;;5008593;28;20030;-54
2021/05/09 12:35:39;;;;;;;6.95;6.25;;;25.00;41.10;;;;;;5009604;28;20068;-56
2021/05/09 12:38:05;;;;;;;6.97;6.28;;;25.00;41.10;;;;;;5011150;28;20386;-58
2021/05/09 12:40:37;;;;;;;6.88;6.18;;;25.00;41.20;;;;;;5012159;28;20101;-61
2021/05/09 12:43:10;;;;;;;7.05;6.30;;;25.00;41.20;;;;;;5007662;28;20451;-57
2021/05/09 12:45:52;;;;;;;6.50;5.63;;;25.00;41.20;;;;;;5010449;28;20029;-61
2021/05/09 12:48:37;;;;;;;5.93;5.32;;;25.00;41.20;;;;;;5006992;28;20077;-61
2021/05/09 12:51:05;;;;;;;6.30;5.00;;;25.00;41.20;;;;;;5009875;28;20025;-54
2021/05/09 12:53:36;;;;;;;6.18;5.57;;;25.00;41.20;;;;;;5011844;28;20043;-57
2021/05/09 12:56:26;;;;;;;5.90;5.30;;;25.00;41.30;;;;;;5012357;28;20033;-60